Time;durP1;ratioP1;P1;durP2;ratioP2;P2;SDS_P1;SDS_P2;PMS_P1;PMS_P2;Temp;Humidity;BMP_temperature;BMP_pressure;BME280_temperature;BME280_humidity;BME280_pressure;Samples;Min_cycle;Max_cycle;Signal;HPM_P1;HPM_P2
2023/07/20 00:01:44;;;;;;;;;6.00;5.00;;;;;22.24;49.61;101182.84;5070239;28;45105;-59
2023/07/20 00:04:10;;;;;;;;;6.67;3.67;;;;;22.25;49.75;101177.38;5071517;28;45393;-59
2023/07/20 00:06:35;;;;;;;;;4.00;4.00;;;;;22.24;49.99;101182.84;5070103;28;45362;-57
2023/07/20 00:09:00;;;;;;;;;5.33;4.00;;;;;22.13;49.93;101157.63;5069111;28;45378;-59
2023/07/20 00:11:27;;;;;;;;;5.67;4.00;;;;;22.26;50.10;101183.75;5070955;28;44970;-58
2023/07/20 00:13:52;;;;;;;;;3.00;3.00;;;;;22.19;50.14;101174.78;5070501;28;45223;-60
2023/07/20 00:16:18;;;;;;;;;7.33;5.67;;;;;22.13;50.04;101179.41;5068351;28;46344;-59
2023/07/20 00:18:43;;;;;;;;;5.33;5.33;;;;;22.14;50.42;101184.84;5071090;28;45044;-59
2023/07/20 00:21:09;;;;;;;;;3.33;3.33;;;;;22.10;50.52;101185.78;5069533;28;45204;-58
2023/07/20 00:23:34;;;;;;;;;7.00;5.00;;;;;22.08;50.57;101193.06;5068729;28;45193;-58
2023/07/20 00:26:00;;;;;;;;;4.67;4.67;;;;;22.02;50.72;101187.72;5067782;28;46557;-58
2023/07/20 00:28:25;;;;;;;;;5.67;5.00;;;;;22.02;50.97;101187.72;5069234;28;45069;-60
2023/07/20 00:30:50;;;;;;;;;6.67;5.67;;;;;22.03;50.64;101190.41;5067566;28;45040;-59
2023/07/20 00:33:17;;;;;;;;;9.67;7.00;;;;;21.96;50.86;101171.47;5067782;28;45225;-58
2023/07/20 00:35:43;;;;;;;;;4.33;3.67;;;;;22.00;50.89;101182.28;5070359;28;45244;-60
2023/07/20 00:38:08;;;;;;;;;4.00;4.00;;;;;21.99;51.07;101193.19;5069693;28;45075;-60
2023/07/20 00:40:41;;;;;;;;;7.33;6.00;;;;;21.96;51.14;101196.88;5069979;28;45182;-58
2023/07/20 00:43:07;;;;;;;;;6.00;4.00;;;;;21.87;50.86;101183.38;5065082;28;44939;-60
2023/07/20 00:45:33;;;;;;;;;3.33;3.33;;;;;21.97;51.31;101195.03;5062422;28;45265;-60
2023/07/20 00:48:01;;;;;;;;;3.67;3.67;;;;;21.94;51.34;101187.81;5065406;28;45479;-60
2023/07/20 00:50:28;;;;;;;;;4.00;4.00;;;;;21.90;51.42;101186.97;5069688;28;45495;-61
2023/07/20 00:52:55;;;;;;;;;4.00;4.00;;;;;21.91;51.63;101190.59;5070046;28;44973;-58
2023/07/20 00:55:20;;;;;;;;;5.00;2.33;;;;;21.85;51.82;101186.13;5067552;28;46907;-59
2023/07/20 00:57:46;;;;;;;;;4.00;4.00;;;;;21.77;51.81;101177.16;5067229;28;45330;-60
2023/07/20 01:00:12;;;;;;;;;6.00;6.00;;;;;21.80;51.88;101185.28;5069400;28;45308;-58
2023/07/20 01:02:37;;;;;;;;;8.00;6.00;;;;;21.77;51.92;101177.16;5065141;28;44924;-60
2023/07/20 01:05:06;;;;;;;;;5.00;3.00;;;;;21.71;51.97;101177.22;5067799;28;46180;-59
2023/07/20 01:07:38;;;;;;;;;3.00;3.00;;;;;21.72;52.07;101184.50;5067606;28;45955;-60
2023/07/20 01:10:13;;;;;;;;;4.67;4.00;;;;;21.72;52.04;101179.94;5063490;28;45369;-59
2023/07/20 01:12:43;;;;;;;;;4.00;3.00;;;;;21.77;52.03;101187.16;5063519;28;45281;-59
2023/07/20 01:15:09;;;;;;;;;3.00;3.00;;;;;21.75;51.90;101179.00;5060969;28;45244;-60
2023/07/20 01:17:35;;;;;;;;;6.00;6.00;;;;;21.78;51.88;101178.06;5069930;28;45170;-58
2023/07/20 01:20:01;;;;;;;;;4.67;4.67;;;;;21.80;51.75;101181.69;5069489;28;45293;-58
2023/07/20 01:22:26;;;;;;;;;5.00;4.67;;;;;21.78;51.93;101184.41;5066416;28;45383;-59
2023/07/20 01:25:26;;;;;;;;;3.33;2.00;;;;;21.27;51.84;101094.41;5067402;28;45653;-60
2023/07/20 01:28:03;;;;;;;;;6.00;5.33;;;;;21.75;52.29;101179.00;5069040;28;44842;-61
2023/07/20 01:30:58;;;;;;;;;5.33;4.33;;;;;21.59;52.18;101155.66;5065933;28;45375;-59
2023/07/20 01:33:26;;;;;;;;;4.67;3.00;;;;;21.55;52.44;101171.13;5066438;28;45909;-60
2023/07/20 01:36:01;;;;;;;;;7.00;3.67;;;;;21.46;52.98;101169.34;5068712;28;45855;-61
2023/07/20 01:38:27;;;;;;;;;4.00;4.00;;;;;21.39;53.10;101169.47;5065171;28;44941;-58
2023/07/20 01:40:53;;;;;;;;;3.67;3.67;;;;;21.39;53.38;101173.06;5069048;28;45140;-58
2023/07/20 01:43:18;;;;;;;;;4.00;4.00;;;;;21.23;53.34;101138.81;5069441;28;44963;-60
2023/07/20 01:45:44;;;;;;;;;7.33;3.67;;;;;21.30;53.14;101152.34;5068399;28;46055;-60
2023/07/20 01:48:10;;;;;;;;;5.33;4.00;;;;;21.37;53.67;101166.75;5062484;28;45354;-65
2023/07/20 01:50:35;;;;;;;;;4.67;4.67;;;;;21.38;53.73;101168.53;5068642;28;45270;-61
2023/07/20 01:53:01;;;;;;;;;3.00;2.33;;;;;21.35;53.46;101155.00;5059634;28;45202;-59
2023/07/20 01:55:27;;;;;;;;;8.33;4.00;;;;;21.40;53.48;101160.38;5069374;28;45673;-58
2023/07/20 01:57:53;;;;;;;;;3.00;3.00;;;;;21.34;53.58;101151.38;5063611;28;44980;-58
2023/07/20 02:00:23;;;;;;;;;4.00;3.00;;;;;21.35;53.67;101153.19;5067232;28;45263;-59
2023/07/20 02:02:49;;;;;;;;;3.00;3.00;;;;;21.32;53.73;101150.50;5069785;28;44951;-59
2023/07/20 02:05:15;;;;;;;;;5.33;4.00;;;;;21.22;53.78;101139.72;5068671;28;46384;-59
2023/07/20 02:07:40;;;;;;;;;4.33;4.00;;;;;21.31;53.88;101153.22;5068660;28;44937;-61
2023/07/20 02:10:06;;;;;;;;;3.67;3.00;;;;;21.35;53.51;101147.75;5069424;28;45020;-60
2023/07/20 02:12:31;;;;;;;;;4.67;3.33;;;;;21.36;53.58;101148.63;5067715;28;45214;-59
2023/07/20 02:14:57;;;;;;;;;4.00;4.00;;;;;21.30;53.83;101137.81;5068327;28;45215;-59
2023/07/20 02:17:22;;;;;;;;;4.00;3.00;;;;;21.30;53.53;101140.53;5061795;28;45360;-59
2023/07/20 02:19:50;;;;;;;;;2.00;2.00;;;;;21.24;53.74;101138.81;5069175;28;45161;-60
2023/07/20 02:22:16;;;;;;;;;5.00;4.00;;;;;21.28;53.51;101143.31;5068144;28;45384;-59
2023/07/20 02:24:42;;;;;;;;;3.33;2.33;;;;;21.20;53.57;101119.84;5066836;28;45252;-60
2023/07/20 02:27:07;;;;;;;;;4.00;3.00;;;;;21.27;53.84;101137.88;5064665;28;55121;-60
2023/07/20 02:29:32;;;;;;;;;4.00;3.00;;;;;21.24;53.91;101138.81;5057288;28;45374;-59
2023/07/20 02:31:57;;;;;;;;;3.67;3.67;;;;;21.19;53.69;101126.22;5065534;28;45254;-59
2023/07/20 02:34:23;;;;;;;;;3.00;2.00;;;;;21.17;53.82;101132.56;5068250;28;45144;-60
2023/07/20 02:36:48;;;;;;;;;4.00;4.00;;;;;21.18;53.84;101138.88;5067043;28;45327;-59
2023/07/20 02:39:14;;;;;;;;;4.67;3.00;;;;;21.24;53.91;101137.94;5067277;28;45177;-59
2023/07/20 02:41:39;;;;;;;;;5.00;5.00;;;;;21.28;53.93;101142.38;5067797;28;45266;-59
2023/07/20 02:44:04;;;;;;;;;7.00;3.33;;;;;21.21;53.69;101143.38;5068800;28;51792;-59
2023/07/20 02:46:30;;;;;;;;;3.00;3.00;;;;;21.22;53.75;101147.88;5068749;28;45666;-59
2023/07/20 02:48:55;;;;;;;;;4.33;4.00;;;;;21.13;54.10;101144.34;5068733;28;44890;-61
2023/07/20 02:51:21;;;;;;;;;3.00;2.67;;;;;21.01;54.39;101146.31;5068407;28;44871;-58
2023/07/20 02:53:46;;;;;;;;;3.00;3.00;;;;;20.89;54.41;101140.09;5068593;28;45230;-60
2023/07/20 02:56:11;;;;;;;;;2.00;2.00;;;;;20.89;54.62;101133.78;5063208;28;45141;-59
2023/07/20 02:58:43;;;;;;;;;5.00;3.67;;;;;20.97;54.66;101148.19;5066836;28;46684;-58
2023/07/20 03:01:09;;;;;;;;;5.67;4.00;;;;;20.97;54.49;101149.06;5057266;28;45679;-60
2023/07/20 03:03:38;;;;;;;;;6.33;6.33;;;;;20.90;54.81;101141.88;5067807;28;45774;-61
2023/07/20 03:06:09;;;;;;;;;4.00;2.00;;;;;20.90;54.66;101149.13;5067624;28;45222;-60
2023/07/20 03:08:35;;;;;;;;;5.33;3.00;;;;;20.85;54.84;101151.00;5061926;28;45079;-60
2023/07/20 03:11:00;;;;;;;;;3.33;3.33;;;;;20.76;55.26;101141.13;5067066;28;45346;-59
2023/07/20 03:13:26;;;;;;;;;6.00;4.33;;;;;20.73;55.40;101133.91;5066579;28;45716;-59
2023/07/20 03:15:52;;;;;;;;;4.00;4.00;;;;;20.77;55.48;101149.28;5064286;28;45118;-59
2023/07/20 03:18:18;;;;;;;;;3.33;3.00;;;;;20.67;55.93;101133.06;5067135;28;45418;-59
2023/07/20 03:20:43;;;;;;;;;2.67;2.67;;;;;20.70;55.72;101139.34;5068355;28;45340;-60
2023/07/20 03:23:08;;;;;;;;;5.00;3.00;;;;;20.69;55.85;101140.28;5067594;28;46201;-60
2023/07/20 03:25:34;;;;;;;;;5.00;3.67;;;;;20.74;55.88;101152.00;5070319;28;55535;-59
2023/07/20 03:27:59;;;;;;;;;4.00;3.00;;;;;20.77;55.70;101148.34;5071023;28;45920;-59
2023/07/20 03:30:25;;;;;;;;;5.00;3.33;;;;;20.75;55.89;101139.31;5066203;28;45140;-61
2023/07/20 03:32:51;;;;;;;;;5.00;2.67;;;;;20.57;56.24;101122.28;5071047;28;45725;-59
2023/07/20 03:35:16;;;;;;;;;4.67;4.00;;;;;20.62;56.36;101149.34;5066774;28;45376;-59
2023/07/20 03:37:41;;;;;;;;;3.00;3.00;;;;;20.57;56.43;101138.56;5071725;28;45438;-60
2023/07/20 03:40:07;;;;;;;;;6.00;6.00;;;;;20.55;56.33;101144.91;5071475;28;44957;-60
2023/07/20 03:42:33;;;;;;;;;3.00;1.00;;;;;20.50;57.05;101147.66;5070077;28;45525;-58
2023/07/20 03:44:58;;;;;;;;;6.00;3.00;;;;;20.43;57.05;101144.09;5070526;28;44948;-58
2023/07/20 03:47:24;;;;;;;;;4.00;4.00;;;;;20.38;57.16;101139.63;5066003;28;45255;-59
2023/07/20 03:49:49;;;;;;;;;2.67;2.67;;;;;20.33;57.18;101153.22;5062536;28;45193;-59
2023/07/20 03:52:15;;;;;;;;;3.33;3.00;;;;;20.31;57.18;101148.69;5068668;28;47387;-58
2023/07/20 03:54:40;;;;;;;;;2.00;2.00;;;;;20.31;57.22;101157.75;5071430;28;45071;-62
2023/07/20 03:57:05;;;;;;;;;5.00;4.00;;;;;20.32;57.31;101145.97;5071510;28;45047;-59
2023/07/20 03:59:31;;;;;;;;;3.33;3.00;;;;;20.32;57.61;101154.13;5071293;28;45051;-59
2023/07/20 04:01:56;;;;;;;;;3.00;3.00;;;;;20.29;57.38;101140.56;5069986;28;45733;-60
2023/07/20 04:04:21;;;;;;;;;6.00;3.00;;;;;20.30;57.52;101149.63;5063725;28;50669;-62
2023/07/20 04:06:47;;;;;;;;;4.00;3.33;;;;;20.23;57.75;101146.06;5063644;28;45075;-61
2023/07/20 04:09:12;;;;;;;;;6.00;4.00;;;;;20.11;57.98;101128.03;5070816;28;45329;-60
2023/07/20 04:11:38;;;;;;;;;4.00;4.00;;;;;20.20;57.63;101136.13;5070149;28;46319;-58
2023/07/20 04:14:04;;;;;;;;;6.00;3.33;;;;;20.04;57.83;101119.03;5067682;28;45307;-60
2023/07/20 04:16:29;;;;;;;;;3.00;3.00;;;;;20.16;57.87;101147.94;5069964;28;45165;-63
2023/07/20 04:18:56;;;;;;;;;4.00;3.00;;;;;20.16;58.11;101138.88;5066688;28;45201;-59
2023/07/20 04:21:21;;;;;;;;;3.00;3.00;;;;;20.09;58.38;101139.81;5068940;28;46580;-58
2023/07/20 04:23:46;;;;;;;;;3.00;0.00;;;;;19.99;58.34;101114.56;5070748;28;45266;-58
2023/07/20 04:26:12;;;;;;;;;6.33;4.00;;;;;20.05;58.53;101128.09;5069438;28;44996;-58
2023/07/20 04:28:39;;;;;;;;;4.67;3.00;;;;;20.07;58.60;101132.59;5070710;28;45196;-60
2023/07/20 04:31:15;;;;;;;;;3.00;3.00;;;;;20.07;58.76;101131.69;5065413;28;45328;-59
2023/07/20 04:33:41;;;;;;;;;7.00;5.00;;;;;20.05;58.83;101128.09;5069611;28;45394;-59
2023/07/20 04:36:07;;;;;;;;;5.00;5.00;;;;;20.08;59.15;101138.94;5068488;28;45031;-57
2023/07/20 04:38:33;;;;;;;;;4.00;4.00;;;;;20.04;59.46;101137.13;5068591;28;45220;-58
2023/07/20 04:40:58;;;;;;;;;6.67;4.00;;;;;20.03;59.30;101136.25;5070507;28;45404;-59
2023/07/20 04:43:24;;;;;;;;;6.33;4.33;;;;;20.03;59.53;101141.66;5070880;28;45098;-59
2023/07/20 04:45:50;;;;;;;;;5.33;5.00;;;;;20.01;59.69;101134.44;5071140;28;45020;-60
2023/07/20 04:48:17;;;;;;;;;4.00;3.00;;;;;20.01;59.69;101137.16;5066960;28;45451;-59
2023/07/20 04:50:44;;;;;;;;;2.00;2.00;;;;;20.01;59.89;101126.31;5064259;28;45520;-58
2023/07/20 04:53:10;;;;;;;;;7.00;5.33;;;;;20.05;60.13;101137.13;5068575;28;45215;-58
2023/07/20 04:55:39;;;;;;;;;6.00;4.00;;;;;20.01;59.77;101129.94;5065012;28;45348;-59
2023/07/20 04:58:05;;;;;;;;;5.67;4.00;;;;;20.04;59.60;101127.19;5065577;28;45267;-59
2023/07/20 05:00:32;;;;;;;;;4.00;4.00;;;;;20.04;59.80;101139.84;5070056;28;46337;-59
2023/07/20 05:02:57;;;;;;;;;7.33;5.00;;;;;20.03;59.84;101144.38;5065131;28;44964;-59
2023/07/20 05:05:23;;;;;;;;;6.00;4.33;;;;;20.00;59.60;101135.38;5070026;28;45186;-59
2023/07/20 05:07:48;;;;;;;;;5.00;3.67;;;;;20.05;59.68;101141.66;5070716;28;45191;-59
2023/07/20 05:10:13;;;;;;;;;6.67;5.00;;;;;20.00;59.98;101136.25;5063914;28;45056;-57
2023/07/20 05:12:39;;;;;;;;;2.33;2.33;;;;;20.01;59.82;101139.88;5067586;28;45097;-59
2023/07/20 05:15:05;;;;;;;;;5.33;5.33;;;;;20.06;59.74;101130.81;5069656;28;45011;-60
2023/07/20 05:17:30;;;;;;;;;4.00;4.00;;;;;20.13;59.51;101141.59;5063632;28;44955;-59
2023/07/20 05:19:55;;;;;;;;;9.67;5.67;;;;;20.17;59.24;101141.56;5062423;28;46496;-59
2023/07/20 05:22:21;;;;;;;;;4.00;4.00;;;;;20.23;59.13;101143.34;5069801;28;44914;-59
2023/07/20 05:24:46;;;;;;;;;6.00;3.00;;;;;20.22;59.17;101150.56;5069874;28;44956;-59
2023/07/20 05:27:12;;;;;;;;;4.33;4.33;;;;;20.19;59.28;101144.28;5067349;28;45242;-59
2023/07/20 05:29:37;;;;;;;;;3.67;3.67;;;;;20.29;58.96;101151.44;5067889;28;45261;-58
2023/07/20 05:32:03;;;;;;;;;4.00;3.67;;;;;20.34;58.67;101159.53;5066722;28;44989;-58
2023/07/20 05:34:28;;;;;;;;;6.00;4.67;;;;;20.38;58.79;101166.75;5064173;28;45209;-58
2023/07/20 05:36:54;;;;;;;;;6.67;5.67;;;;;20.36;58.94;101155.00;5069105;28;45260;-58
2023/07/20 05:39:19;;;;;;;;;6.33;3.67;;;;;20.34;58.84;101149.59;5069791;28;45946;-57
2023/07/20 05:41:45;;;;;;;;;4.00;2.67;;;;;20.31;58.50;101149.63;5064732;28;45256;-60
2023/07/20 05:44:10;;;;;;;;;6.00;4.00;;;;;20.30;58.71;101145.09;5068645;28;45445;-59
2023/07/20 05:46:35;;;;;;;;;4.33;3.00;;;;;20.32;58.79;101158.66;5065172;28;52527;-58
2023/07/20 05:49:01;;;;;;;;;5.67;4.67;;;;;20.30;58.70;101145.09;5064172;28;46328;-58
2023/07/20 05:51:27;;;;;;;;;15.00;14.67;;;;;20.41;58.47;101158.59;5062662;28;45323;-61
2023/07/20 05:53:53;;;;;;;;;9.33;5.00;;;;;20.49;58.42;101162.16;5068034;28;45067;-58
2023/07/20 05:56:18;;;;;;;;;10.00;9.00;;;;;20.54;58.14;101149.44;5068193;28;45214;-59
2023/07/20 05:58:43;;;;;;;;;9.67;9.67;;;;;20.49;58.44;101128.66;5045626;28;46445;-59
2023/07/20 06:01:09;;;;;;;;;10.33;3.67;;;;;20.56;58.33;101141.28;5062704;28;45074;-59
2023/07/20 06:03:34;;;;;;;;;6.33;4.00;;;;;20.59;58.23;101138.50;5068065;28;45069;-61
2023/07/20 06:06:06;;;;;;;;;11.00;8.00;;;;;20.62;58.26;101142.13;5060760;28;45258;-60
2023/07/20 06:08:31;;;;;;;;;5.67;5.67;;;;;20.71;57.81;101148.44;5053929;28;46349;-60
2023/07/20 06:10:57;;;;;;;;;10.33;10.33;;;;;20.77;57.87;101137.50;5065150;28;46443;-59
2023/07/20 06:13:23;;;;;;;;;4.00;4.00;;;;;20.70;57.67;101135.75;5069305;28;45309;-58
2023/07/20 06:15:49;;;;;;;;;5.00;3.67;;;;;20.69;57.48;101133.94;5069170;28;45416;-58
2023/07/20 06:18:14;;;;;;;;;5.67;4.00;;;;;20.77;57.27;101148.34;5068841;28;45591;-60
2023/07/20 06:20:39;;;;;;;;;7.00;5.00;;;;;20.73;57.15;101138.44;5067741;28;45169;-60
2023/07/20 06:23:10;;;;;;;;;5.67;4.00;;;;;20.62;57.35;101123.13;5069091;28;45977;-59
2023/07/20 06:25:36;;;;;;;;;28.00;25.00;;;;;20.77;57.27;101142.91;5069037;28;45145;-58
2023/07/20 06:28:01;;;;;;;;;6.33;4.67;;;;;20.73;57.17;101141.16;5068580;28;45518;-60
2023/07/20 06:30:27;;;;;;;;;4.67;4.67;;;;;20.79;57.48;101142.00;5066775;28;45015;-60
2023/07/20 06:32:52;;;;;;;;;4.33;4.33;;;;;20.88;56.98;101151.88;5062665;28;45369;-60
2023/07/20 06:35:17;;;;;;;;;5.33;5.00;;;;;20.93;56.98;101150.00;5065233;28;45300;-58
2023/07/20 06:37:43;;;;;;;;;14.67;11.33;;;;;21.01;56.81;101147.22;5068602;28;45093;-59
2023/07/20 06:40:09;;;;;;;;;7.00;6.00;;;;;20.99;56.48;101147.22;5063593;28;44948;-59
2023/07/20 06:42:35;;;;;;;;;4.33;3.67;;;;;20.99;56.47;101130.03;5067445;28;45143;-59
2023/07/20 06:45:00;;;;;;;;;4.33;4.33;;;;;21.09;56.31;101145.31;5067934;28;45175;-57
2023/07/20 06:47:26;;;;;;;;;7.00;5.00;;;;;21.15;56.03;101138.91;5061661;28;46052;-58
2023/07/20 06:49:52;;;;;;;;;9.00;9.00;;;;;21.10;55.90;101130.84;5059997;28;45326;-58
2023/07/20 06:52:18;;;;;;;;;5.00;5.00;;;;;21.27;55.28;101143.34;5067307;28;45283;-60
2023/07/20 06:54:43;;;;;;;;;7.33;5.33;;;;;21.27;55.50;101149.66;5062679;28;45478;-59
2023/07/20 06:57:09;;;;;;;;;6.00;4.67;;;;;21.27;55.38;101138.78;5065081;28;45291;-59
2023/07/20 06:59:34;;;;;;;;;6.00;3.33;;;;;21.33;55.53;101137.78;5068453;28;45139;-60
2023/07/20 07:02:00;;;;;;;;;5.33;3.67;;;;;21.39;55.09;101139.56;5068129;28;45221;-60
2023/07/20 07:04:25;;;;;;;;;7.67;5.00;;;;;21.47;55.36;101145.81;5053935;28;45623;-60
2023/07/20 07:06:51;;;;;;;;;4.00;4.00;;;;;21.51;54.39;101136.72;5070081;28;45736;-61
2023/07/20 07:11:45;;;;;;;;;14.00;7.67;;;;;21.50;54.89;101140.38;5047183;28;45178;-59
2023/07/20 07:14:12;;;;;;;;;8.00;5.00;;;;;21.54;54.62;101137.56;5049341;28;45201;-59
2023/07/20 07:16:37;;;;;;;;;4.00;4.00;;;;;21.58;54.51;101143.88;5051889;28;45699;-61
2023/07/20 07:19:03;;;;;;;;;6.67;5.00;;;;;21.56;54.41;101125.78;5049411;28;45100;-62
2023/07/20 07:21:29;;;;;;;;;6.33;5.67;;;;;21.61;54.47;101132.94;5051392;28;45222;-60
2023/07/20 07:23:57;;;;;;;;;5.67;4.67;;;;;21.66;54.11;101136.53;5051746;28;45162;-60
2023/07/20 07:26:23;;;;;;;;;7.33;5.33;;;;;21.59;54.16;101120.31;5054746;28;45551;-62
2023/07/20 07:28:48;;;;;;;;;4.67;4.33;;;;;21.60;53.94;101117.56;5030824;28;45439;-62
2023/07/20 07:31:14;;;;;;;;;9.33;6.33;;;;;21.73;54.15;101121.03;5049937;28;45048;-62
2023/07/20 07:33:40;;;;;;;;;19.00;14.00;;;;;21.86;53.58;101138.97;5052434;28;45039;-67
2023/07/20 07:36:05;;;;;;;;;14.00;13.33;;;;;21.97;53.64;101137.91;5050963;28;45306;-66
2023/07/20 07:38:31;;;;;;;;;9.33;8.00;;;;;21.99;53.25;101127.91;5050196;28;45248;-62
2023/07/20 07:40:56;;;;;;;;;8.67;6.67;;;;;22.08;52.90;101138.66;5050930;28;45816;-66
2023/07/20 07:43:21;;;;;;;;;11.00;6.00;;;;;22.15;52.42;101132.19;5050874;28;47249;-60
2023/07/20 07:45:47;;;;;;;;;5.67;5.67;;;;;22.19;52.42;101130.31;5050818;28;45163;-63
2023/07/20 07:48:13;;;;;;;;;9.00;5.00;;;;;22.28;52.17;101130.19;5049483;28;45314;-62
2023/07/20 07:50:42;;;;;;;;;5.00;5.00;;;;;22.25;51.66;101114.78;5050358;28;45213;-61
2023/07/20 07:53:08;;;;;;;;;7.00;6.67;;;;;22.42;51.54;101139.06;5049693;28;44957;-60
2023/07/20 07:55:34;;;;;;;;;5.00;5.00;;;;;22.46;51.35;101137.19;5049195;28;45684;-61
2023/07/20 07:58:00;;;;;;;;;6.33;5.33;;;;;22.51;51.39;101128.94;5050113;28;45358;-61
2023/07/20 08:00:25;;;;;;;;;12.00;9.33;;;;;22.57;50.56;101127.00;5048333;28;51269;-64
2023/07/20 08:02:51;;;;;;;;;6.33;6.00;;;;;22.63;50.89;101126.00;5051079;28;45090;-63
2023/07/20 08:05:16;;;;;;;;;7.00;5.33;;;;;22.72;50.59;101128.56;5050461;28;45337;-62
2023/07/20 08:07:42;;;;;;;;;10.67;6.33;;;;;22.79;50.42;101124.78;5048957;28;45167;-62
2023/07/20 08:10:08;;;;;;;;;7.67;4.00;;;;;22.79;50.37;101110.28;5057794;28;45404;-62
2023/07/20 08:12:33;;;;;;;;;10.00;5.67;;;;;22.92;50.28;101117.28;5070261;28;45108;-67
2023/07/20 08:14:59;;;;;;;;;9.00;5.00;;;;;22.99;49.67;101120.78;5071442;28;45305;-62
2023/07/20 08:17:24;;;;;;;;;4.33;4.33;;;;;23.04;49.41;101120.72;5050189;28;56552;-60
2023/07/20 08:19:49;;;;;;;;;8.00;5.00;;;;;23.04;49.48;101107.97;5071102;28;45172;-61
2023/07/20 08:22:15;;;;;;;;;9.33;9.00;;;;;23.21;48.82;101117.69;5070836;28;45182;-62
2023/07/20 08:24:42;;;;;;;;;9.00;6.33;;;;;23.27;49.07;101114.84;5070459;28;45456;-61
2023/07/20 08:27:08;;;;;;;;;8.67;5.67;;;;;23.37;48.50;101122.78;5070362;28;45086;-61
2023/07/20 08:29:34;;;;;;;;;7.00;5.00;;;;;23.41;48.06;101112.69;5068075;28;45497;-61
2023/07/20 08:31:59;;;;;;;;;5.00;5.00;;;;;23.46;47.39;101104.44;5066904;28;45505;-61
2023/07/20 08:34:25;;;;;;;;;8.33;6.00;;;;;23.44;47.56;101096.28;5070267;28;45912;-62
2023/07/20 08:36:50;;;;;;;;;7.00;5.33;;;;;23.62;47.34;101114.06;5068644;28;45331;-62
2023/07/20 08:39:16;;;;;;;;;7.67;7.67;;;;;23.67;47.37;101106.69;5066706;28;45163;-62
2023/07/20 08:41:43;;;;;;;;;9.33;7.00;;;;;23.74;47.12;101094.72;5071162;28;45166;-61
2023/07/20 08:44:10;;;;;;;;;6.00;4.00;;;;;23.82;46.89;101096.38;5068918;28;45480;-64
2023/07/20 08:46:38;;;;;;;;;5.33;4.00;;;;;23.85;46.64;101093.59;5059414;28;45319;-63
2023/07/20 08:49:04;;;;;;;;;5.00;5.00;;;;;23.80;46.22;101082.75;5066229;28;45139;-61
2023/07/20 08:51:30;;;;;;;;;3.33;3.00;;;;;23.86;45.86;101084.50;5054846;28;46449;-64
2023/07/20 08:53:56;;;;;;;;;4.33;4.00;;;;;23.99;45.24;101094.19;5036609;28;46348;-61
2023/07/20 08:56:25;;;;;;;;;5.33;3.00;;;;;24.05;45.47;101074.03;5055451;28;45503;-65
2023/07/20 08:58:53;;;;;;;;;8.00;5.00;;;;;24.24;44.39;101090.84;5064523;28;45521;-63
2023/07/20 09:01:19;;;;;;;;;8.67;6.33;;;;;24.34;44.54;101094.25;5065265;28;45475;-63
2023/07/20 09:03:45;;;;;;;;;4.33;4.00;;;;;24.43;44.47;101086.69;5051789;28;45690;-63
2023/07/20 09:06:10;;;;;;;;;6.00;5.00;;;;;24.41;44.62;101084.97;5052373;28;45775;-64
2023/07/20 09:08:40;;;;;;;;;5.67;5.00;;;;;24.37;44.26;101096.88;5053769;28;45488;-62
2023/07/20 09:11:06;;;;;;;;;6.00;3.00;;;;;24.14;44.15;101082.00;5049436;28;45543;-61
2023/07/20 09:13:34;;;;;;;;;4.00;4.00;;;;;24.23;43.97;101097.25;5060320;28;46098;-61
2023/07/20 09:16:00;;;;;;;;;5.67;5.67;;;;;24.15;43.47;101094.69;5056149;28;45546;-63
2023/07/20 09:18:28;;;;;;;;;5.67;5.00;;;;;23.97;43.93;101092.41;5051933;28;45947;-62
2023/07/20 09:20:59;;;;;;;;;6.00;4.67;;;;;23.92;44.13;101093.44;5054783;28;45480;-62
2023/07/20 09:23:32;;;;;;;;;6.00;5.67;;;;;23.98;44.52;101088.75;5035730;28;46326;-68
2023/07/20 09:25:58;;;;;;;;;6.00;6.00;;;;;24.11;44.31;101095.72;5054460;28;45501;-67
2023/07/20 09:28:24;;;;;;;;;4.00;4.00;;;;;24.25;43.72;101077.16;5054582;28;45393;-65
2023/07/20 09:30:49;;;;;;;;;7.00;5.33;;;;;24.42;43.67;101084.94;5058387;28;45545;-62
2023/07/20 09:33:20;;;;;;;;;5.33;4.33;;;;;24.59;42.81;101087.25;5053964;28;46040;-65
2023/07/20 09:35:45;;;;;;;;;5.67;4.00;;;;;24.51;41.24;101072.84;5053294;28;45646;-65
2023/07/20 09:38:11;;;;;;;;;4.00;4.00;;;;;24.61;40.58;101073.53;5053022;28;45465;-63
2023/07/20 09:40:39;;;;;;;;;4.00;4.00;;;;;24.57;39.89;101074.56;5052176;28;45226;-63
2023/07/20 09:43:08;;;;;;;;;2.67;2.67;;;;;24.51;39.90;101075.59;5051982;28;46200;-62
2023/07/20 09:45:36;;;;;;;;;5.00;5.00;;;;;24.55;40.44;101079.13;5046749;28;45481;-63
2023/07/20 09:48:09;;;;;;;;;4.33;4.33;;;;;24.51;40.98;101071.97;5053941;28;45480;-62
2023/07/20 09:50:49;;;;;;;;;4.00;4.00;;;;;24.40;41.47;101051.31;5054367;28;45616;-65
2023/07/20 09:53:15;;;;;;;;;3.67;3.67;;;;;24.55;41.25;101057.28;5052576;28;45540;-64
2023/07/20 09:55:44;;;;;;;;;1.33;1.33;;;;;24.65;40.63;101062.50;5053878;28;45393;-62
2023/07/20 09:58:10;;;;;;;;;5.00;5.00;;;;;24.76;40.88;101056.72;5053631;28;45433;-62
2023/07/20 10:00:38;;;;;;;;;3.33;3.33;;;;;25.02;39.66;101066.03;5053731;28;45584;-66
2023/07/20 10:03:04;;;;;;;;;2.67;2.00;;;;;25.16;37.77;101066.53;5035187;28;46419;-66
2023/07/20 10:05:34;;;;;;;;;3.33;2.00;;;;;25.15;37.31;101062.00;5053673;28;45309;-61
2023/07/20 10:08:02;;;;;;;;;2.33;2.33;;;;;25.12;37.57;101062.09;5051682;28;45690;-63
2023/07/20 10:10:28;;;;;;;;;3.00;3.00;;;;;25.09;37.63;101064.91;5050291;28;45549;-62
2023/07/20 10:12:54;;;;;;;;;2.33;2.33;;;;;25.02;37.73;101058.72;5040949;28;47522;-61
2023/07/20 10:15:25;;;;;;;;;2.00;2.00;;;;;25.00;37.03;101057.88;5052801;28;45419;-62
2023/07/20 10:17:59;;;;;;;;;8.67;6.67;;;;;24.96;37.48;101042.53;5050316;28;45454;-62
2023/07/20 10:20:25;;;;;;;;;15.33;9.67;;;;;25.13;37.10;101049.34;5035109;28;45501;-61
2023/07/20 10:22:54;;;;;;;;;13.67;11.00;;;;;25.24;36.63;101043.53;5041302;28;46241;-64
2023/07/20 10:25:22;;;;;;;;;4.67;4.67;;;;;25.37;36.73;101039.50;5056911;28;45353;-61
2023/07/20 10:27:48;;;;;;;;;5.33;4.33;;;;;25.45;35.71;101045.66;5053631;28;45508;-61
2023/07/20 10:30:14;;;;;;;;;2.00;2.00;;;;;25.39;35.57;101018.47;5053143;28;45384;-60
2023/07/20 10:32:42;;;;;;;;;2.67;2.67;;;;;25.51;35.79;101022.69;5051818;28;45471;-65
2023/07/20 10:35:13;;;;;;;;;1.00;1.00;;;;;25.54;35.89;101026.22;5052056;28;45556;-63
2023/07/20 10:37:50;;;;;;;;;6.33;4.00;;;;;25.47;35.88;101005.44;5056297;28;45311;-63
2023/07/20 10:40:37;;;;;;;;;3.67;3.00;;;;;25.57;35.52;101022.47;5056833;28;45484;-63
2023/07/20 10:43:08;;;;;;;;;4.00;4.00;;;;;25.59;35.86;101017.88;5051770;28;46794;-61
2023/07/20 10:45:53;;;;;;;;;4.33;3.00;;;;;25.47;36.41;101010.03;5056057;28;45490;-62
2023/07/20 10:48:24;;;;;;;;;7.67;7.67;;;;;25.49;37.12;101019.06;5056349;28;45495;-61
2023/07/20 10:51:13;;;;;;;;;4.00;3.00;;;;;25.40;36.66;101019.38;5053107;28;45436;-62
2023/07/20 10:53:38;;;;;;;;;2.33;2.33;;;;;25.32;36.59;101016.88;5034705;28;45951;-64
2023/07/20 10:56:32;;;;;;;;;4.00;4.00;;;;;25.29;37.24;101016.97;5055905;28;45484;-62
2023/07/20 10:59:01;;;;;;;;;4.00;4.00;;;;;25.35;36.86;101022.25;5032948;28;45531;-64
2023/07/20 11:01:31;;;;;;;;;4.00;4.00;;;;;25.42;36.76;101010.16;5055826;28;45393;-63
2023/07/20 11:04:00;;;;;;;;;4.00;3.00;;;;;25.45;36.65;101009.19;5056068;28;45415;-62
2023/07/20 11:06:25;;;;;;;;;5.67;4.67;;;;;25.48;36.17;101011.84;5055181;28;45351;-65
2023/07/20 11:09:14;;;;;;;;;2.67;2.00;;;;;25.48;35.82;100992.69;5040812;28;45413;-63
2023/07/20 11:11:42;;;;;;;;;4.00;3.67;;;;;25.60;35.47;101008.69;5056919;28;45348;-63
2023/07/20 11:14:10;;;;;;;;;5.00;3.67;;;;;25.67;35.48;101007.56;5049682;28;45484;-62
2023/07/20 11:16:41;;;;;;;;;4.00;4.00;;;;;25.76;35.34;101000.91;5039848;28;45487;-63
2023/07/20 11:19:23;;;;;;;;;4.00;4.00;;;;;25.83;35.40;101007.94;5037986;28;45436;-62
2023/07/20 11:21:54;;;;;;;;;6.67;6.67;;;;;25.83;34.87;100988.78;5051155;28;45589;-63
2023/07/20 11:24:20;;;;;;;;;4.00;3.67;;;;;25.47;34.24;100920.66;5052478;28;46490;-64
2023/07/20 11:26:53;;;;;;;;;1.33;1.33;;;;;25.93;33.06;100993.00;5056033;28;45513;-67